sensor_id;sensor_type;location;lat;lon;timestamp;P1;durP1;ratioP1;P2;durP2;ratioP2
49840;SDS011;35738;49.890;5.930;2023-04-09T00:01:32;51.20;;;28.48;;
49840;SDS011;35738;49.890;5.930;2023-04-09T00:03:58;59.00;;;31.15;;
49840;SDS011;35738;49.890;5.930;2023-04-09T00:06:26;59.63;;;30.98;;
49840;SDS011;35738;49.890;5.930;2023-04-09T00:08:52;62.78;;;33.63;;
49840;SDS011;35738;49.890;5.930;2023-04-09T00:11:19;69.37;;;34.53;;
49840;SDS011;35738;49.890;5.930;2023-04-09T00:13:46;73.68;;;34.83;;
49840;SDS011;35738;49.890;5.930;2023-04-09T00:16:13;70.03;;;35.08;;
49840;SDS011;35738;49.890;5.930;2023-04-09T00:18:39;76.60;;;37.13;;
49840;SDS011;35738;49.890;5.930;2023-04-09T00:21:06;73.27;;;36.13;;
49840;SDS011;35738;49.890;5.930;2023-04-09T00:23:33;72.83;;;37.13;;
49840;SDS011;35738;49.890;5.930;2023-04-09T00:26:01;73.67;;;37.53;;
49840;SDS011;35738;49.890;5.930;2023-04-09T00:28:27;75.73;;;36.50;;
49840;SDS011;35738;49.890;5.930;2023-04-09T00:30:54;71.47;;;36.93;;
49840;SDS011;35738;49.890;5.930;2023-04-09T00:33:21;75.15;;;36.55;;
49840;SDS011;35738;49.890;5.930;2023-04-09T00:35:47;77.43;;;37.42;;
49840;SDS011;35738;49.890;5.930;2023-04-09T00:38:13;79.30;;;37.77;;
49840;SDS011;35738;49.890;5.930;2023-04-09T00:40:40;76.78;;;37.55;;
49840;SDS011;35738;49.890;5.930;2023-04-09T00:43:07;85.40;;;40.30;;
49840;SDS011;35738;49.890;5.930;2023-04-09T00:45:34;83.43;;;40.00;;
49840;SDS011;35738;49.890;5.930;2023-04-09T00:48:01;78.40;;;40.42;;
49840;SDS011;35738;49.890;5.930;2023-04-09T00:50:28;84.63;;;40.35;;
49840;SDS011;35738;49.890;5.930;2023-04-09T00:52:54;82.70;;;41.03;;
49840;SDS011;35738;49.890;5.930;2023-04-09T00:55:21;85.00;;;40.92;;
49840;SDS011;35738;49.890;5.930;2023-04-09T00:57:47;84.05;;;41.67;;
49840;SDS011;35738;49.890;5.930;2023-04-09T01:00:14;82.63;;;39.17;;
49840;SDS011;35738;49.890;5.930;2023-04-09T01:02:41;82.25;;;39.78;;
49840;SDS011;35738;49.890;5.930;2023-04-09T01:05:08;86.47;;;39.97;;
49840;SDS011;35738;49.890;5.930;2023-04-09T01:10:37;84.05;;;40.38;;
49840;SDS011;35738;49.890;5.930;2023-04-09T01:13:15;85.65;;;40.45;;
49840;SDS011;35738;49.890;5.930;2023-04-09T01:15:53;87.15;;;39.35;;
49840;SDS011;35738;49.890;5.930;2023-04-09T01:18:23;86.20;;;41.13;;
49840;SDS011;35738;49.890;5.930;2023-04-09T01:21:04;84.18;;;40.67;;
49840;SDS011;35738;49.890;5.930;2023-04-09T01:23:49;85.78;;;39.90;;
49840;SDS011;35738;49.890;5.930;2023-04-09T01:29:00;81.40;;;40.00;;
49840;SDS011;35738;49.890;5.930;2023-04-09T01:31:31;88.03;;;41.97;;
49840;SDS011;35738;49.890;5.930;2023-04-09T01:34:01;99.82;;;43.92;;
49840;SDS011;35738;49.890;5.930;2023-04-09T01:36:30;96.03;;;43.27;;
49840;SDS011;35738;49.890;5.930;2023-04-09T01:39:01;94.95;;;43.45;;
49840;SDS011;35738;49.890;5.930;2023-04-09T01:41:29;97.60;;;43.47;;
49840;SDS011;35738;49.890;5.930;2023-04-09T01:43:57;100.43;;;44.23;;
49840;SDS011;35738;49.890;5.930;2023-04-09T01:46:27;93.83;;;43.47;;
49840;SDS011;35738;49.890;5.930;2023-04-09T01:48:55;94.50;;;43.80;;
49840;SDS011;35738;49.890;5.930;2023-04-09T01:51:22;97.07;;;42.88;;
49840;SDS011;35738;49.890;5.930;2023-04-09T01:53:48;98.05;;;43.53;;
49840;SDS011;35738;49.890;5.930;2023-04-09T01:56:14;94.93;;;42.70;;
49840;SDS011;35738;49.890;5.930;2023-04-09T01:58:41;95.63;;;43.95;;
49840;SDS011;35738;49.890;5.930;2023-04-09T02:03:59;97.22;;;43.25;;
49840;SDS011;35738;49.890;5.930;2023-04-09T02:06:30;98.80;;;42.95;;
49840;SDS011;35738;49.890;5.930;2023-04-09T02:09:04;99.47;;;44.23;;
49840;SDS011;35738;49.890;5.930;2023-04-09T02:11:35;96.10;;;41.72;;
49840;SDS011;35738;49.890;5.930;2023-04-09T02:14:03;99.72;;;44.10;;
49840;SDS011;35738;49.890;5.930;2023-04-09T02:16:33;96.03;;;43.22;;
49840;SDS011;35738;49.890;5.930;2023-04-09T02:19:01;97.60;;;43.47;;
49840;SDS011;35738;49.890;5.930;2023-04-09T02:21:28;99.32;;;43.17;;
49840;SDS011;35738;49.890;5.930;2023-04-09T02:23:54;99.20;;;43.72;;
49840;SDS011;35738;49.890;5.930;2023-04-09T02:26:21;96.90;;;42.03;;
49840;SDS011;35738;49.890;5.930;2023-04-09T02:28:49;104.07;;;43.50;;
49840;SDS011;35738;49.890;5.930;2023-04-09T02:31:16;94.60;;;42.80;;
49840;SDS011;35738;49.890;5.930;2023-04-09T02:33:42;101.35;;;43.80;;
49840;SDS011;35738;49.890;5.930;2023-04-09T02:36:12;95.00;;;40.85;;
49840;SDS011;35738;49.890;5.930;2023-04-09T02:38:41;84.30;;;38.42;;
49840;SDS011;35738;49.890;5.930;2023-04-09T02:41:08;89.63;;;39.08;;
49840;SDS011;35738;49.890;5.930;2023-04-09T02:43:35;90.05;;;40.95;;
49840;SDS011;35738;49.890;5.930;2023-04-09T02:46:02;94.75;;;41.95;;
49840;SDS011;35738;49.890;5.930;2023-04-09T02:48:28;94.47;;;42.30;;
49840;SDS011;35738;49.890;5.930;2023-04-09T02:50:55;96.70;;;42.92;;
49840;SDS011;35738;49.890;5.930;2023-04-09T02:53:22;101.37;;;43.27;;
49840;SDS011;35738;49.890;5.930;2023-04-09T02:55:48;101.60;;;42.50;;
49840;SDS011;35738;49.890;5.930;2023-04-09T02:58:15;104.13;;;43.90;;
49840;SDS011;35738;49.890;5.930;2023-04-09T03:00:41;96.20;;;42.47;;
49840;SDS011;35738;49.890;5.930;2023-04-09T03:03:08;84.68;;;38.47;;
49840;SDS011;35738;49.890;5.930;2023-04-09T03:05:34;80.10;;;35.90;;
49840;SDS011;35738;49.890;5.930;2023-04-09T03:08:01;76.10;;;36.20;;
49840;SDS011;35738;49.890;5.930;2023-04-09T03:10:27;95.95;;;42.97;;
49840;SDS011;35738;49.890;5.930;2023-04-09T03:12:54;86.80;;;39.17;;
49840;SDS011;35738;49.890;5.930;2023-04-09T03:15:20;99.30;;;41.60;;
49840;SDS011;35738;49.890;5.930;2023-04-09T03:17:47;103.40;;;43.93;;
49840;SDS011;35738;49.890;5.930;2023-04-09T03:20:13;95.57;;;41.03;;
49840;SDS011;35738;49.890;5.930;2023-04-09T03:22:40;99.97;;;42.57;;
49840;SDS011;35738;49.890;5.930;2023-04-09T03:25:06;94.70;;;40.17;;
49840;SDS011;35738;49.890;5.930;2023-04-09T03:27:33;97.57;;;42.20;;
49840;SDS011;35738;49.890;5.930;2023-04-09T03:30:00;102.72;;;44.28;;
49840;SDS011;35738;49.890;5.930;2023-04-09T03:32:26;103.23;;;42.53;;
49840;SDS011;35738;49.890;5.930;2023-04-09T03:34:53;99.40;;;41.97;;
49840;SDS011;35738;49.890;5.930;2023-04-09T03:37:19;94.07;;;39.93;;
49840;SDS011;35738;49.890;5.930;2023-04-09T03:39:46;87.97;;;39.13;;
49840;SDS011;35738;49.890;5.930;2023-04-09T03:42:12;98.93;;;41.85;;
49840;SDS011;35738;49.890;5.930;2023-04-09T03:44:39;108.90;;;41.80;;
49840;SDS011;35738;49.890;5.930;2023-04-09T03:47:06;100.60;;;41.03;;
49840;SDS011;35738;49.890;5.930;2023-04-09T03:49:35;99.13;;;40.13;;
49840;SDS011;35738;49.890;5.930;2023-04-09T03:52:02;93.33;;;39.93;;
49840;SDS011;35738;49.890;5.930;2023-04-09T03:54:29;97.27;;;38.67;;
49840;SDS011;35738;49.890;5.930;2023-04-09T03:56:55;82.60;;;37.50;;
49840;SDS011;35738;49.890;5.930;2023-04-09T03:59:22;93.93;;;38.37;;
49840;SDS011;35738;49.890;5.930;2023-04-09T04:01:49;82.77;;;36.43;;
49840;SDS011;35738;49.890;5.930;2023-04-09T04:04:16;81.00;;;34.97;;
49840;SDS011;35738;49.890;5.930;2023-04-09T04:06:43;72.77;;;33.60;;
49840;SDS011;35738;49.890;5.930;2023-04-09T04:09:10;76.93;;;33.73;;
49840;SDS011;35738;49.890;5.930;2023-04-09T04:11:37;61.57;;;29.57;;
49840;SDS011;35738;49.890;5.930;2023-04-09T04:14:03;78.83;;;34.90;;
49840;SDS011;35738;49.890;5.930;2023-04-09T04:16:29;77.60;;;34.60;;
49840;SDS011;35738;49.890;5.930;2023-04-09T04:18:57;75.80;;;35.23;;
49840;SDS011;35738;49.890;5.930;2023-04-09T04:21:23;89.77;;;36.33;;
49840;SDS011;35738;49.890;5.930;2023-04-09T04:23:50;86.23;;;36.97;;
49840;SDS011;35738;49.890;5.930;2023-04-09T04:26:16;85.27;;;36.97;;
49840;SDS011;35738;49.890;5.930;2023-04-09T04:28:43;102.27;;;39.73;;
49840;SDS011;35738;49.890;5.930;2023-04-09T04:31:09;92.37;;;38.93;;
49840;SDS011;35738;49.890;5.930;2023-04-09T04:33:37;99.63;;;40.43;;
49840;SDS011;35738;49.890;5.930;2023-04-09T04:36:07;103.07;;;41.10;;
49840;SDS011;35738;49.890;5.930;2023-04-09T04:38:36;96.63;;;40.13;;
49840;SDS011;35738;49.890;5.930;2023-04-09T04:41:04;112.33;;;41.23;;
49840;SDS011;35738;49.890;5.930;2023-04-09T04:43:30;110.83;;;42.43;;
49840;SDS011;35738;49.890;5.930;2023-04-09T04:45:57;100.40;;;41.37;;
49840;SDS011;35738;49.890;5.930;2023-04-09T04:48:24;106.73;;;41.60;;
49840;SDS011;35738;49.890;5.930;2023-04-09T04:50:54;105.57;;;42.10;;
49840;SDS011;35738;49.890;5.930;2023-04-09T04:53:25;105.73;;;41.43;;
49840;SDS011;35738;49.890;5.930;2023-04-09T04:55:52;92.27;;;38.50;;
49840;SDS011;35738;49.890;5.930;2023-04-09T04:58:19;97.57;;;39.07;;
49840;SDS011;35738;49.890;5.930;2023-04-09T05:00:46;96.07;;;39.77;;
49840;SDS011;35738;49.890;5.930;2023-04-09T05:03:12;100.20;;;39.73;;
49840;SDS011;35738;49.890;5.930;2023-04-09T05:05:39;101.03;;;39.27;;
49840;SDS011;35738;49.890;5.930;2023-04-09T05:08:06;98.40;;;41.37;;
49840;SDS011;35738;49.890;5.930;2023-04-09T05:10:33;98.45;;;39.42;;
49840;SDS011;35738;49.890;5.930;2023-04-09T05:13:00;99.27;;;39.47;;
49840;SDS011;35738;49.890;5.930;2023-04-09T05:15:27;98.47;;;39.63;;
49840;SDS011;35738;49.890;5.930;2023-04-09T05:17:53;97.10;;;38.83;;
49840;SDS011;35738;49.890;5.930;2023-04-09T05:20:20;98.57;;;39.37;;
49840;SDS011;35738;49.890;5.930;2023-04-09T05:22:46;95.60;;;38.83;;
49840;SDS011;35738;49.890;5.930;2023-04-09T05:25:13;101.33;;;38.80;;
49840;SDS011;35738;49.890;5.930;2023-04-09T05:27:41;89.13;;;36.17;;
49840;SDS011;35738;49.890;5.930;2023-04-09T05:30:08;86.07;;;35.70;;
49840;SDS011;35738;49.890;5.930;2023-04-09T05:32:34;89.00;;;34.63;;
49840;SDS011;35738;49.890;5.930;2023-04-09T05:35:01;78.63;;;33.53;;
49840;SDS011;35738;49.890;5.930;2023-04-09T05:37:27;67.23;;;31.10;;
49840;SDS011;35738;49.890;5.930;2023-04-09T05:39:54;65.90;;;30.07;;
49840;SDS011;35738;49.890;5.930;2023-04-09T05:42:21;58.08;;;27.88;;
49840;SDS011;35738;49.890;5.930;2023-04-09T05:44:48;58.73;;;28.13;;
49840;SDS011;35738;49.890;5.930;2023-04-09T05:47:14;52.60;;;26.48;;
49840;SDS011;35738;49.890;5.930;2023-04-09T05:49:40;44.00;;;23.63;;
49840;SDS011;35738;49.890;5.930;2023-04-09T05:52:07;38.67;;;21.10;;
49840;SDS011;35738;49.890;5.930;2023-04-09T05:54:33;38.10;;;21.83;;
49840;SDS011;35738;49.890;5.930;2023-04-09T05:57:00;39.38;;;21.15;;
49840;SDS011;35738;49.890;5.930;2023-04-09T05:59:26;30.48;;;18.67;;
49840;SDS011;35738;49.890;5.930;2023-04-09T06:01:53;38.38;;;19.80;;
49840;SDS011;35738;49.890;5.930;2023-04-09T06:04:19;31.52;;;19.33;;
49840;SDS011;35738;49.890;5.930;2023-04-09T06:06:46;31.92;;;18.58;;
49840;SDS011;35738;49.890;5.930;2023-04-09T06:09:13;30.60;;;18.25;;
49840;SDS011;35738;49.890;5.930;2023-04-09T06:11:39;30.45;;;18.00;;
49840;SDS011;35738;49.890;5.930;2023-04-09T06:14:06;31.30;;;18.08;;
49840;SDS011;35738;49.890;5.930;2023-04-09T06:16:32;28.45;;;17.13;;
49840;SDS011;35738;49.890;5.930;2023-04-09T06:19:00;32.38;;;18.30;;
49840;SDS011;35738;49.890;5.930;2023-04-09T06:21:27;28.90;;;17.05;;
49840;SDS011;35738;49.890;5.930;2023-04-09T06:23:54;26.85;;;16.40;;
49840;SDS011;35738;49.890;5.930;2023-04-09T06:26:21;25.13;;;15.50;;
49840;SDS011;35738;49.890;5.930;2023-04-09T06:28:47;25.25;;;15.88;;
49840;SDS011;35738;49.890;5.930;2023-04-09T06:31:14;26.65;;;16.52;;
49840;SDS011;35738;49.890;5.930;2023-04-09T06:33:40;23.92;;;16.05;;
49840;SDS011;35738;49.890;5.930;2023-04-09T06:36:07;27.80;;;16.10;;
49840;SDS011;35738;49.890;5.930;2023-04-09T06:38:33;23.85;;;15.80;;
49840;SDS011;35738;49.890;5.930;2023-04-09T06:41:00;24.80;;;16.10;;
49840;SDS011;35738;49.890;5.930;2023-04-09T06:43:27;27.85;;;16.30;;
49840;SDS011;35738;49.890;5.930;2023-04-09T06:45:53;24.45;;;15.68;;
49840;SDS011;35738;49.890;5.930;2023-04-09T06:48:20;19.20;;;13.68;;
49840;SDS011;35738;49.890;5.930;2023-04-09T06:50:46;21.40;;;14.45;;
49840;SDS011;35738;49.890;5.930;2023-04-09T06:53:13;21.70;;;14.15;;
49840;SDS011;35738;49.890;5.930;2023-04-09T06:55:40;23.42;;;15.98;;
49840;SDS011;35738;49.890;5.930;2023-04-09T06:58:07;21.15;;;14.73;;
49840;SDS011;35738;49.890;5.930;2023-04-09T07:00:33;23.55;;;15.98;;
49840;SDS011;35738;49.890;5.930;2023-04-09T07:03:00;21.60;;;15.60;;
49840;SDS011;35738;49.890;5.930;2023-04-09T07:05:27;24.67;;;16.25;;
49840;SDS011;35738;49.890;5.930;2023-04-09T07:07:54;24.55;;;14.68;;
49840;SDS011;35738;49.890;5.930;2023-04-09T07:10:21;23.77;;;15.88;;
49840;SDS011;35738;49.890;5.930;2023-04-09T07:12:47;22.95;;;15.25;;
49840;SDS011;35738;49.890;5.930;2023-04-09T07:15:14;23.05;;;14.63;;
49840;SDS011;35738;49.890;5.930;2023-04-09T07:17:41;23.13;;;15.18;;
49840;SDS011;35738;49.890;5.930;2023-04-09T07:20:07;25.13;;;16.33;;
49840;SDS011;35738;49.890;5.930;2023-04-09T07:22:34;24.30;;;14.82;;
49840;SDS011;35738;49.890;5.930;2023-04-09T07:25:01;22.05;;;14.73;;
49840;SDS011;35738;49.890;5.930;2023-04-09T07:27:28;21.23;;;14.35;;
49840;SDS011;35738;49.890;5.930;2023-04-09T07:29:58;25.27;;;15.30;;
49840;SDS011;35738;49.890;5.930;2023-04-09T07:32:25;23.77;;;15.65;;
49840;SDS011;35738;49.890;5.930;2023-04-09T07:34:56;22.95;;;15.35;;
49840;SDS011;35738;49.890;5.930;2023-04-09T07:37:24;23.38;;;15.38;;
49840;SDS011;35738;49.890;5.930;2023-04-09T07:39:51;25.23;;;15.90;;
49840;SDS011;35738;49.890;5.930;2023-04-09T07:42:17;23.55;;;15.60;;
49840;SDS011;35738;49.890;5.930;2023-04-09T07:44:44;22.85;;;15.55;;
49840;SDS011;35738;49.890;5.930;2023-04-09T07:47:10;23.02;;;15.00;;
49840;SDS011;35738;49.890;5.930;2023-04-09T07:49:39;20.10;;;14.60;;
49840;SDS011;35738;49.890;5.930;2023-04-09T07:52:05;22.50;;;13.98;;
49840;SDS011;35738;49.890;5.930;2023-04-09T07:54:33;21.95;;;14.73;;
49840;SDS011;35738;49.890;5.930;2023-04-09T07:57:00;20.88;;;14.35;;
49840;SDS011;35738;49.890;5.930;2023-04-09T07:59:29;19.17;;;13.07;;
49840;SDS011;35738;49.890;5.930;2023-04-09T08:01:57;18.20;;;12.55;;
49840;SDS011;35738;49.890;5.930;2023-04-09T08:04:24;18.05;;;12.48;;
49840;SDS011;35738;49.890;5.930;2023-04-09T08:06:52;18.83;;;13.15;;
49840;SDS011;35738;49.890;5.930;2023-04-09T08:09:19;18.92;;;13.10;;
49840;SDS011;35738;49.890;5.930;2023-04-09T08:11:47;20.08;;;12.40;;
49840;SDS011;35738;49.890;5.930;2023-04-09T08:14:14;18.50;;;11.60;;
49840;SDS011;35738;49.890;5.930;2023-04-09T08:16:43;14.02;;;10.30;;
49840;SDS011;35738;49.890;5.930;2023-04-09T08:19:11;16.15;;;11.55;;
49840;SDS011;35738;49.890;5.930;2023-04-09T08:21:39;16.73;;;12.20;;
49840;SDS011;35738;49.890;5.930;2023-04-09T08:24:09;16.20;;;10.77;;
49840;SDS011;35738;49.890;5.930;2023-04-09T08:26:37;16.67;;;12.13;;
49840;SDS011;35738;49.890;5.930;2023-04-09T08:29:04;15.15;;;9.90;;
49840;SDS011;35738;49.890;5.930;2023-04-09T08:31:31;16.05;;;10.65;;
49840;SDS011;35738;49.890;5.930;2023-04-09T08:33:58;14.82;;;10.07;;
49840;SDS011;35738;49.890;5.930;2023-04-09T08:36:25;14.68;;;10.88;;
49840;SDS011;35738;49.890;5.930;2023-04-09T08:38:53;12.55;;;8.93;;
49840;SDS011;35738;49.890;5.930;2023-04-09T08:41:23;13.57;;;9.68;;
49840;SDS011;35738;49.890;5.930;2023-04-09T08:43:51;12.77;;;8.93;;
49840;SDS011;35738;49.890;5.930;2023-04-09T08:46:24;11.63;;;8.75;;
49840;SDS011;35738;49.890;5.930;2023-04-09T08:48:51;16.20;;;10.98;;
49840;SDS011;35738;49.890;5.930;2023-04-09T08:51:19;13.15;;;9.05;;
49840;SDS011;35738;49.890;5.930;2023-04-09T08:53:47;10.63;;;8.00;;
49840;SDS011;35738;49.890;5.930;2023-04-09T08:56:18;12.50;;;8.48;;
49840;SDS011;35738;49.890;5.930;2023-04-09T08:58:47;11.98;;;8.73;;
49840;SDS011;35738;49.890;5.930;2023-04-09T09:01:31;13.07;;;9.35;;
49840;SDS011;35738;49.890;5.930;2023-04-09T09:06:32;13.05;;;9.80;;
49840;SDS011;35738;49.890;5.930;2023-04-09T09:09:08;13.55;;;8.82;;
49840;SDS011;35738;49.890;5.930;2023-04-09T09:11:45;12.07;;;8.95;;
49840;SDS011;35738;49.890;5.930;2023-04-09T09:14:14;13.15;;;9.35;;
49840;SDS011;35738;49.890;5.930;2023-04-09T09:17:04;13.02;;;10.07;;
49840;SDS011;35738;49.890;5.930;2023-04-09T09:19:31;12.98;;;9.55;;
49840;SDS011;35738;49.890;5.930;2023-04-09T09:22:03;11.45;;;8.93;;
49840;SDS011;35738;49.890;5.930;2023-04-09T09:24:31;12.10;;;8.75;;
49840;SDS011;35738;49.890;5.930;2023-04-09T09:27:00;10.30;;;7.60;;
49840;SDS011;35738;49.890;5.930;2023-04-09T09:29:27;13.43;;;9.57;;
49840;SDS011;35738;49.890;5.930;2023-04-09T09:31:54;14.75;;;10.18;;
49840;SDS011;35738;49.890;5.930;2023-04-09T09:34:22;13.95;;;9.38;;
49840;SDS011;35738;49.890;5.930;2023-04-09T09:36:50;13.95;;;10.05;;
49840;SDS011;35738;49.890;5.930;2023-04-09T09:39:16;13.63;;;9.77;;
49840;SDS011;35738;49.890;5.930;2023-04-09T09:41:43;8.65;;;7.10;;
49840;SDS011;35738;49.890;5.930;2023-04-09T09:44:11;9.80;;;7.35;;
49840;SDS011;35738;49.890;5.930;2023-04-09T09:46:55;10.73;;;8.30;;
49840;SDS011;35738;49.890;5.930;2023-04-09T09:49:23;12.60;;;8.90;;
49840;SDS011;35738;49.890;5.930;2023-04-09T09:51:49;12.85;;;9.05;;
49840;SDS011;35738;49.890;5.930;2023-04-09T09:54:18;10.93;;;8.60;;
49840;SDS011;35738;49.890;5.930;2023-04-09T09:56:47;12.27;;;9.50;;
49840;SDS011;35738;49.890;5.930;2023-04-09T09:59:21;12.05;;;8.32;;
49840;SDS011;35738;49.890;5.930;2023-04-09T10:01:55;12.07;;;8.57;;
49840;SDS011;35738;49.890;5.930;2023-04-09T10:04:30;9.68;;;7.50;;
49840;SDS011;35738;49.890;5.930;2023-04-09T10:07:00;9.55;;;7.22;;
49840;SDS011;35738;49.890;5.930;2023-04-09T10:09:31;9.60;;;7.75;;
49840;SDS011;35738;49.890;5.930;2023-04-09T10:12:00;9.82;;;7.47;;
49840;SDS011;35738;49.890;5.930;2023-04-09T10:14:30;14.10;;;9.48;;
49840;SDS011;35738;49.890;5.930;2023-04-09T10:16:56;13.32;;;9.07;;
49840;SDS011;35738;49.890;5.930;2023-04-09T10:19:23;10.75;;;7.82;;
49840;SDS011;35738;49.890;5.930;2023-04-09T10:21:51;11.88;;;8.07;;
49840;SDS011;35738;49.890;5.930;2023-04-09T10:24:21;9.32;;;7.97;;
49840;SDS011;35738;49.890;5.930;2023-04-09T10:26:49;8.55;;;7.07;;
49840;SDS011;35738;49.890;5.930;2023-04-09T10:29:26;9.27;;;7.18;;
49840;SDS011;35738;49.890;5.930;2023-04-09T10:31:54;9.15;;;7.43;;
49840;SDS011;35738;49.890;5.930;2023-04-09T10:34:30;8.98;;;7.00;;
49840;SDS011;35738;49.890;5.930;2023-04-09T10:37:01;9.82;;;7.07;;
49840;SDS011;35738;49.890;5.930;2023-04-09T10:39:31;8.45;;;6.95;;
49840;SDS011;35738;49.890;5.930;2023-04-09T10:41:59;8.57;;;6.85;;
49840;SDS011;35738;49.890;5.930;2023-04-09T10:44:27;8.35;;;6.75;;
49840;SDS011;35738;49.890;5.930;2023-04-09T10:46:57;10.07;;;7.25;;
49840;SDS011;35738;49.890;5.930;2023-04-09T10:49:24;8.70;;;7.25;;
49840;SDS011;35738;49.890;5.930;2023-04-09T10:59:43;11.32;;;7.50;;
49840;SDS011;35738;49.890;5.930;2023-04-09T11:02:25;9.95;;;8.00;;
49840;SDS011;35738;49.890;5.930;2023-04-09T11:07:56;10.10;;;7.40;;
49840;SDS011;35738;49.890;5.930;2023-04-09T11:10:23;8.90;;;7.15;;
49840;SDS011;35738;49.890;5.930;2023-04-09T11:12:50;10.48;;;7.55;;
49840;SDS011;35738;49.890;5.930;2023-04-09T11:15:17;10.18;;;7.50;;
49840;SDS011;35738;49.890;5.930;2023-04-09T11:17:47;11.35;;;7.75;;
49840;SDS011;35738;49.890;5.930;2023-04-09T11:20:15;9.38;;;7.50;;
49840;SDS011;35738;49.890;5.930;2023-04-09T11:22:44;11.57;;;8.02;;
49840;SDS011;35738;49.890;5.930;2023-04-09T11:25:16;9.55;;;7.55;;
49840;SDS011;35738;49.890;5.930;2023-04-09T11:27:44;9.05;;;7.65;;
49840;SDS011;35738;49.890;5.930;2023-04-09T11:30:12;9.98;;;7.32;;
49840;SDS011;35738;49.890;5.930;2023-04-09T11:32:39;8.63;;;6.97;;
49840;SDS011;35738;49.890;5.930;2023-04-09T11:35:12;10.02;;;7.85;;
49840;SDS011;35738;49.890;5.930;2023-04-09T11:37:40;10.07;;;7.43;;
49840;SDS011;35738;49.890;5.930;2023-04-09T11:40:43;8.85;;;7.15;;
49840;SDS011;35738;49.890;5.930;2023-04-09T11:43:01;9.68;;;6.97;;
49840;SDS011;35738;49.890;5.930;2023-04-09T11:45:28;7.85;;;6.70;;
49840;SDS011;35738;49.890;5.930;2023-04-09T11:47:56;9.23;;;6.85;;
49840;SDS011;35738;49.890;5.930;2023-04-09T11:50:23;8.95;;;7.18;;
49840;SDS011;35738;49.890;5.930;2023-04-09T11:52:50;9.77;;;7.38;;
49840;SDS011;35738;49.890;5.930;2023-04-09T11:55:24;9.32;;;7.28;;
49840;SDS011;35738;49.890;5.930;2023-04-09T11:57:52;9.45;;;7.97;;
49840;SDS011;35738;49.890;5.930;2023-04-09T12:00:21;8.63;;;7.72;;
49840;SDS011;35738;49.890;5.930;2023-04-09T12:02:50;9.30;;;7.30;;
49840;SDS011;35738;49.890;5.930;2023-04-09T12:05:25;8.48;;;6.47;;
49840;SDS011;35738;49.890;5.930;2023-04-09T12:08:00;7.43;;;6.28;;
49840;SDS011;35738;49.890;5.930;2023-04-09T12:10:30;9.00;;;6.97;;
49840;SDS011;35738;49.890;5.930;2023-04-09T12:13:01;8.55;;;6.50;;
49840;SDS011;35738;49.890;5.930;2023-04-09T12:15:31;7.90;;;6.60;;
49840;SDS011;35738;49.890;5.930;2023-04-09T12:18:02;8.38;;;6.32;;
49840;SDS011;35738;49.890;5.930;2023-04-09T12:20:30;7.05;;;6.35;;
49840;SDS011;35738;49.890;5.930;2023-04-09T12:22:58;8.90;;;6.65;;
49840;SDS011;35738;49.890;5.930;2023-04-09T12:25:27;5.82;;;5.00;;
49840;SDS011;35738;49.890;5.930;2023-04-09T12:27:54;7.85;;;6.30;;
49840;SDS011;35738;49.890;5.930;2023-04-09T12:30:22;5.40;;;4.90;;
49840;SDS011;35738;49.890;5.930;2023-04-09T12:32:49;8.73;;;6.45;;
49840;SDS011;35738;49.890;5.930;2023-04-09T12:35:16;29.40;;;26.23;;
49840;SDS011;35738;49.890;5.930;2023-04-09T12:37:42;9.55;;;7.45;;
49840;SDS011;35738;49.890;5.930;2023-04-09T12:40:09;8.23;;;6.65;;
49840;SDS011;35738;49.890;5.930;2023-04-09T12:42:39;9.13;;;6.90;;
49840;SDS011;35738;49.890;5.930;2023-04-09T12:45:07;9.10;;;6.90;;
49840;SDS011;35738;49.890;5.930;2023-04-09T12:47:35;7.82;;;6.25;;
49840;SDS011;35738;49.890;5.930;2023-04-09T12:50:02;9.05;;;6.90;;
49840;SDS011;35738;49.890;5.930;2023-04-09T12:52:29;7.78;;;6.60;;
49840;SDS011;35738;49.890;5.930;2023-04-09T12:54:56;8.77;;;6.88;;
49840;SDS011;35738;49.890;5.930;2023-04-09T12:57:22;8.43;;;6.68;;
49840;SDS011;35738;49.890;5.930;2023-04-09T12:59:49;10.05;;;7.05;;
49840;SDS011;35738;49.890;5.930;2023-04-09T13:02:15;7.13;;;5.68;;
49840;SDS011;35738;49.890;5.930;2023-04-09T13:04:42;7.03;;;6.00;;
49840;SDS011;35738;49.890;5.930;2023-04-09T13:07:10;6.57;;;5.38;;
49840;SDS011;35738;49.890;5.930;2023-04-09T13:09:37;6.50;;;5.80;;
49840;SDS011;35738;49.890;5.930;2023-04-09T13:12:04;7.65;;;5.93;;
49840;SDS011;35738;49.890;5.930;2023-04-09T13:14:31;7.60;;;6.43;;
49840;SDS011;35738;49.890;5.930;2023-04-09T13:16:57;7.43;;;5.90;;
49840;SDS011;35738;49.890;5.930;2023-04-09T13:19:24;7.35;;;6.28;;
49840;SDS011;35738;49.890;5.930;2023-04-09T13:21:51;9.38;;;6.60;;
49840;SDS011;35738;49.890;5.930;2023-04-09T13:24:17;7.40;;;6.00;;
49840;SDS011;35738;49.890;5.930;2023-04-09T13:26:44;7.63;;;5.97;;
49840;SDS011;35738;49.890;5.930;2023-04-09T13:29:10;7.22;;;6.07;;
49840;SDS011;35738;49.890;5.930;2023-04-09T13:31:37;8.38;;;6.70;;
49840;SDS011;35738;49.890;5.930;2023-04-09T13:34:03;7.45;;;5.68;;
49840;SDS011;35738;49.890;5.930;2023-04-09T13:36:31;7.97;;;6.25;;
49840;SDS011;35738;49.890;5.930;2023-04-09T13:38:59;7.72;;;6.05;;
49840;SDS011;35738;49.890;5.930;2023-04-09T13:41:32;6.65;;;5.68;;
49840;SDS011;35738;49.890;5.930;2023-04-09T13:43:59;8.60;;;6.72;;
49840;SDS011;35738;49.890;5.930;2023-04-09T13:46:26;7.43;;;5.95;;
49840;SDS011;35738;49.890;5.930;2023-04-09T13:48:53;6.75;;;6.05;;
49840;SDS011;35738;49.890;5.930;2023-04-09T13:51:22;7.75;;;6.25;;
49840;SDS011;35738;49.890;5.930;2023-04-09T13:53:50;8.07;;;6.47;;
49840;SDS011;35738;49.890;5.930;2023-04-09T13:56:17;6.40;;;5.65;;
49840;SDS011;35738;49.890;5.930;2023-04-09T13:58:43;7.93;;;5.95;;
49840;SDS011;35738;49.890;5.930;2023-04-09T14:01:10;7.32;;;5.70;;
49840;SDS011;35738;49.890;5.930;2023-04-09T14:03:37;7.80;;;6.10;;
49840;SDS011;35738;49.890;5.930;2023-04-09T14:06:05;7.68;;;6.20;;
49840;SDS011;35738;49.890;5.930;2023-04-09T14:08:33;6.97;;;5.80;;
49840;SDS011;35738;49.890;5.930;2023-04-09T14:11:00;7.90;;;6.05;;
49840;SDS011;35738;49.890;5.930;2023-04-09T14:13:27;7.25;;;6.00;;
49840;SDS011;35738;49.890;5.930;2023-04-09T14:15:54;7.35;;;5.80;;
49840;SDS011;35738;49.890;5.930;2023-04-09T14:18:24;8.40;;;5.60;;
49840;SDS011;35738;49.890;5.930;2023-04-09T14:20:50;7.75;;;5.32;;
49840;SDS011;35738;49.890;5.930;2023-04-09T14:23:17;5.93;;;5.32;;
49840;SDS011;35738;49.890;5.930;2023-04-09T14:25:44;6.72;;;5.43;;
49840;SDS011;35738;49.890;5.930;2023-04-09T14:28:10;7.00;;;5.13;;
49840;SDS011;35738;49.890;5.930;2023-04-09T14:30:37;7.60;;;5.38;;
49840;SDS011;35738;49.890;5.930;2023-04-09T14:33:03;7.20;;;5.47;;
49840;SDS011;35738;49.890;5.930;2023-04-09T14:35:30;5.72;;;4.88;;
49840;SDS011;35738;49.890;5.930;2023-04-09T14:37:56;6.45;;;5.53;;
49840;SDS011;35738;49.890;5.930;2023-04-09T14:40:23;6.43;;;4.85;;
49840;SDS011;35738;49.890;5.930;2023-04-09T14:42:50;5.93;;;5.30;;
49840;SDS011;35738;49.890;5.930;2023-04-09T14:45:16;5.65;;;5.00;;
49840;SDS011;35738;49.890;5.930;2023-04-09T14:47:42;5.10;;;4.60;;
49840;SDS011;35738;49.890;5.930;2023-04-09T14:50:09;6.22;;;5.30;;
49840;SDS011;35738;49.890;5.930;2023-04-09T14:52:37;5.43;;;4.90;;
49840;SDS011;35738;49.890;5.930;2023-04-09T14:55:04;4.38;;;3.97;;
49840;SDS011;35738;49.890;5.930;2023-04-09T14:57:40;6.38;;;5.32;;